General Aviation Weather

Text Reports

Enter one or more of the following location identifiers separated by a space:

Zip Code, Four-Character ICAO or Three-Character IATA airport codes.

METAR - Aviation Routine Weather Report
KMOD - Modesto, California
Updated at 9:53 AM GMT on August 27, 2014 (2:53 AM PDT):
METAR KMOD 270953Z AUTO 01003KT 10SM CLR 21/13 A2996 RMK AO2 SLP146 T02110128
TAF - Terminal Area Forecast
KMOD - Modesto, California
Updated at 9:53 AM GMT on August 27, 2014 (2:53 AM PDT):
No TAF is currently available for this location.
Decoded:
No decoded TAF is available.
PIREP - Pilot Weather Report
KMOD - Modesto, California
Updated at 9:53 AM GMT on August 27, 2014 (2:53 AM PDT):
No PIREP is currently available for this location.
AIRMET - Airmens Meteorological Information
KMOD - Modesto, California
Updated at 9:53 AM GMT on August 27, 2014 (2:53 AM PDT):
No AIRMET is currently available for this location.
SIGMET - Significant Meteorological Information
KMOD - Modesto, California
Updated at 9:53 AM GMT on August 27, 2014 (2:53 AM PDT):
No SIGMET is currently available for this location.
NOTAM - Notice to Airmen
KMOD - Modesto, California
Updated at 9:53 AM GMT on August 27, 2014 (2:53 AM PDT):
No NOTAM is currently available for this location.
Forecast Area
KMOD - Modesto, California
Updated at 9:53 AM GMT on August 27, 2014 (2:53 AM PDT):
No NOTAM is currently available for this location.
Aviation Weather Maps